Terminal Aerodrome Forecast
Issued by NWS

Home | Current Version | Previous Version | Text Only | Print | Product List | Glossary Off
Versions: 1 2 3 4 5 6 7 8 9 10 11 12 13 14 15 16

000
FTUS43 KTOP 181004 AAA
TAFFOE
TAF AMD
KFOE 181004Z 1810/1906 10006KT P6SM OVC040
     FM181300 13006KT 5SM -SHRA VCTS OVC008CB
     FM181500 15008KT 4SM -SHRA VCTS OVC013CB
     FM181800 16010KT P6SM BKN070=

USA.gov is the U.S. government's official web portal to all federal, state and local government web resources and services.